Liberal, KS

5:33 PM CDT on August 31, 2016 (GMT -0500)
Liberal Municipal

Weather History for KLBL - May, 2012

Change the Weather History Date:

Friday, May 25, 2012

  Actual Average Record
Temperature  
Mean Temperature 81 °F -  
Max Temperature 100 °F 83 °F 104 °F (1953)
Min Temperature 62 °F 54 °F 39 °F (2002)
Cooling Degree Days 16    
Growing Degree Days 31 (Base 50)    
Moisture  
Dew Point 49 °F    
Average Humidity 38    
Maximum Humidity 57    
Minimum Humidity 12    
Precipitation  
Precipitation 0.00 in - - ()
Sea Level Pressure  
Sea Level Pressure 29.75 in    
Wind  
Wind Speed 16 mph (SE)    
Max Wind Speed 38 mph    
Max Gust Speed 45 mph    
Visibility 10 miles    
Events      
Averages and records for this station are not official NWS values.
T = Trace of Precipitation, MM = Missing Value Source: NWS Daily Summary

Daily Weather History Graph

Daily Weather History Graph

Search for Another Location

Airport or City:

Trip Planner

Search our weather history database for the weather conditions in past years. The results will help you decide how hot, cold, wet, or windy it might be!

Date:

Astronomy

May. 25, 2012 Rise Set
Actual Time 6:28 AM CDT 8:53 PM CDT
Civil Twilight 5:58 AM CDT 9:23 PM CDT
Nautical Twilight 5:21 AM CDT 10:00 PM CDT
Astronomical Twilight 4:41 AM CDT 10:41 PM CDT
Moon 10:28 AM CDT (5/25) No Moon Set
Length of Visible Light 15h 24m
Length of Day
14h 25m
Waxing Crescent, 20% of the Moon is Illuminated
May 25
Waxing Crescent
May 28
First Quarter
Jun 4
Full
Jun 11
Last Quarter
Jun 19
New

Hourly Weather History & Observations

Time (CDT) Temp. Heat Index Dew Point Humidity Pressure Visibility Wind Dir Wind Speed Gust Speed Precip Events Conditions
12:15 AM 73.4 °F - 50.0 °F 44% 29.71 in 10.0 mi East 10.4 mph - N/A   Clear
12:35 AM 73.4 °F - 50.0 °F 44% 29.71 in 10.0 mi East 13.8 mph - N/A   Clear
12:55 AM 71.6 °F - 50.0 °F 46% 29.72 in 10.0 mi East 11.5 mph - N/A   Clear
1:15 AM 71.6 °F - 48.2 °F 43% 29.72 in 10.0 mi ENE 10.4 mph - N/A   Clear
1:35 AM 69.8 °F - 48.2 °F 46% 29.73 in 10.0 mi ENE 10.4 mph - N/A   Clear
1:55 AM 68.0 °F - 48.2 °F 49% 29.73 in 10.0 mi NE 13.8 mph 19.6 mph N/A   Clear
2:15 AM 68.0 °F - 46.4 °F 46% 29.75 in 10.0 mi ENE 17.3 mph - N/A   Clear
2:35 AM 68.0 °F - 46.4 °F 46% 29.76 in 10.0 mi ENE 17.3 mph - N/A   Clear
2:55 AM 66.2 °F - 44.6 °F 46% 29.76 in 10.0 mi ENE 17.3 mph 25.3 mph N/A   Clear
3:15 AM 66.2 °F - 44.6 °F 46% 29.76 in 10.0 mi ENE 19.6 mph - N/A   Clear
3:35 AM 64.4 °F - 44.6 °F 49% 29.76 in 10.0 mi ENE 19.6 mph 27.6 mph N/A   Clear
3:55 AM 64.4 °F - 44.6 °F 49% 29.75 in 10.0 mi ENE 20.7 mph 28.8 mph N/A   Clear
4:15 AM 64.4 °F - 42.8 °F 45% 29.75 in 10.0 mi ENE 17.3 mph - N/A   Clear
4:35 AM 64.4 °F - 42.8 °F 45% 29.74 in 10.0 mi ENE 21.9 mph 27.6 mph N/A   Clear
4:55 AM 62.6 °F - 42.8 °F 48% 29.74 in 10.0 mi ENE 19.6 mph 28.8 mph N/A   Clear
5:15 AM 62.6 °F - 42.8 °F 48% 29.75 in 10.0 mi ENE 18.4 mph 25.3 mph N/A   Clear
5:35 AM 62.6 °F - 41.0 °F 45% 29.76 in 10.0 mi ENE 18.4 mph 28.8 mph N/A   Clear
5:55 AM 62.6 °F - 41.0 °F 45% 29.76 in 10.0 mi ENE 17.3 mph - N/A   Clear
6:15 AM 62.6 °F - 42.8 °F 48% 29.76 in 10.0 mi ENE 17.3 mph 27.6 mph N/A   Clear
6:35 AM 62.6 °F - 42.8 °F 48% 29.77 in 10.0 mi ENE 9.2 mph 16.1 mph N/A   Clear
6:55 AM 62.6 °F - 42.8 °F 48% 29.77 in 10.0 mi ENE 15.0 mph 24.2 mph N/A   Clear
7:15 AM 62.6 °F - 44.6 °F 52% 29.77 in 10.0 mi East 18.4 mph 26.5 mph N/A   Clear
7:35 AM 64.4 °F - 44.6 °F 49% 29.75 in 10.0 mi East 18.4 mph 25.3 mph N/A   Clear
7:55 AM 64.4 °F - 46.4 °F 52% 29.78 in 10.0 mi East 18.4 mph 23.0 mph N/A   Clear
8:15 AM 66.2 °F - 48.2 °F 52% 29.77 in 10.0 mi East 21.9 mph 26.5 mph N/A   Clear
8:35 AM 66.2 °F - 50.0 °F 56% 29.78 in 10.0 mi East 18.4 mph 27.6 mph N/A   Clear
8:55 AM 68.0 °F - 51.8 °F 56% 29.78 in 10.0 mi East 17.3 mph 25.3 mph N/A   Clear
9:15 AM 69.8 °F - 53.6 °F 56% 29.78 in 10.0 mi East 16.1 mph - N/A   Clear
9:35 AM 71.6 °F - 55.4 °F 57% 29.78 in 10.0 mi East 13.8 mph - N/A   Clear
9:55 AM 73.4 °F - 57.2 °F 57% 29.79 in 10.0 mi ESE 12.7 mph - N/A   Clear
10:15 AM 75.2 °F - 59.0 °F 57% 29.78 in 10.0 mi ESE 12.7 mph - N/A   Clear
10:35 AM 75.2 °F - 59.0 °F 57% 29.78 in 10.0 mi SSE 11.5 mph - N/A   Clear
10:55 AM 78.8 °F - 57.2 °F 47% 29.79 in 10.0 mi South 8.1 mph - N/A   Clear
11:15 AM 78.8 °F - 55.4 °F 44% 29.78 in 10.0 mi ESE 4.6 mph - N/A   Clear
11:35 AM 80.6 °F 80.5 °F 55.4 °F 42% 29.78 in 10.0 mi Calm Calm - N/A   Clear
11:55 AM 80.6 °F 80.3 °F 53.6 °F 39% 29.78 in 10.0 mi South 8.1 mph - N/A   Clear
12:15 PM 82.4 °F 81.4 °F 53.6 °F 37% 29.79 in 10.0 mi South 6.9 mph - N/A   Clear
12:35 PM 84.2 °F 82.8 °F 53.6 °F 35% 29.78 in 10.0 mi SW 4.6 mph - N/A   Clear
12:55 PM 86.0 °F 84.2 °F 53.6 °F 33% 29.78 in 10.0 mi South 4.6 mph - N/A   Clear
1:15 PM 87.8 °F 85.7 °F 53.6 °F 31% 29.78 in 10.0 mi SSW 5.8 mph - N/A   Clear
1:35 PM 87.8 °F 85.7 °F 53.6 °F 31% 29.77 in 10.0 mi SSW 9.2 mph - N/A   Clear
1:55 PM 91.4 °F - 51.8 °F 26% 29.77 in 10.0 mi South 12.7 mph - N/A   Clear
2:15 PM 91.4 °F - 48.2 °F 23% 29.77 in 10.0 mi SW 15.0 mph 20.7 mph N/A   Clear
2:35 PM 93.2 °F - 50.0 °F 23% 29.76 in 10.0 mi SSW 15.0 mph 20.7 mph N/A   Clear
2:55 PM 93.2 °F - 50.0 °F 23% 29.76 in 10.0 mi SW 15.0 mph 21.9 mph N/A   Clear
3:15 PM 95.0 °F - 50.0 °F 22% 29.75 in 10.0 mi SW 12.7 mph 24.2 mph N/A   Clear
3:35 PM 96.8 °F - 48.2 °F 19% 29.74 in 10.0 mi SSW 19.6 mph 25.3 mph N/A   Clear
3:55 PM 98.6 °F - 44.6 °F 16% 29.73 in 10.0 mi SSW 18.4 mph 25.3 mph N/A   Clear
4:15 PM 98.6 °F - 44.6 °F 16% 29.73 in 10.0 mi SSW 23.0 mph 28.8 mph N/A   Clear
4:35 PM 100.4 °F - 42.8 °F 14% 29.73 in 10.0 mi South 19.6 mph 29.9 mph N/A   Clear
4:55 PM 98.6 °F - 41.0 °F 14% 29.72 in 10.0 mi SSW 17.3 mph 29.9 mph N/A   Clear
5:15 PM 98.6 °F - 39.2 °F 13% 29.72 in 10.0 mi SSW 21.9 mph 29.9 mph N/A   Clear
5:35 PM 100.4 °F - 39.2 °F 12% 29.72 in 10.0 mi South 19.6 mph 28.8 mph N/A   Clear
5:55 PM 98.6 °F - 39.2 °F 13% 29.72 in 10.0 mi South 23.0 mph 35.7 mph N/A   Clear
6:15 PM 100.4 °F - 39.2 °F 12% 29.71 in 10.0 mi SSW 20.7 mph 24.2 mph N/A   Clear
6:35 PM 98.6 °F - 39.2 °F 13% 29.71 in 10.0 mi SSW 18.4 mph - N/A   Clear
6:55 PM 98.6 °F - 37.4 °F 12% 29.71 in 10.0 mi South 18.4 mph - N/A   Clear
7:15 PM 98.6 °F - 37.4 °F 12% 29.69 in 10.0 mi South 13.8 mph 24.2 mph N/A   Clear
7:35 PM 96.8 °F 94.4 °F 53.6 °F 23% 29.69 in 10.0 mi SSE 29.9 mph 35.7 mph N/A   Partly Cloudy
7:55 PM 93.2 °F 91.3 °F 55.4 °F 28% 29.69 in 10.0 mi SSE 24.2 mph 34.5 mph N/A   Partly Cloudy
8:15 PM 93.2 °F 93.3 °F 60.8 °F 34% 29.69 in 10.0 mi SSE 20.7 mph 29.9 mph N/A   Clear
8:35 PM 91.4 °F 91.4 °F 60.8 °F 36% 29.69 in 10.0 mi SSE 19.6 mph 26.5 mph N/A   Clear
8:55 PM 89.6 °F 89.5 °F 60.8 °F 38% 29.70 in 10.0 mi SSE 21.9 mph 29.9 mph N/A   Clear
9:15 PM 89.6 °F 89.5 °F 60.8 °F 38% 29.72 in 10.0 mi SSE 27.6 mph 40.3 mph N/A   Clear
9:35 PM 87.8 °F 88.5 °F 62.6 °F 43% 29.71 in 10.0 mi SSE 38.0 mph 44.9 mph N/A   Clear
9:55 PM 82.4 °F 82.5 °F 59.0 °F 45% 29.73 in 10.0 mi SSE 24.2 mph 27.6 mph N/A   Clear
10:15 PM 80.6 °F 80.5 °F 55.4 °F 42% 29.75 in 10.0 mi South 31.1 mph 40.3 mph N/A   Clear
10:35 PM 78.8 °F - 51.8 °F 39% 29.76 in 10.0 mi South 23.0 mph 29.9 mph N/A   Clear
10:55 PM 78.8 °F - 51.8 °F 39% 29.77 in 10.0 mi South 21.9 mph 31.1 mph N/A   Clear
11:15 PM 80.6 °F - 51.8 °F 37% 29.78 in 10.0 mi South 20.7 mph 26.5 mph N/A   Clear
11:35 PM 80.6 °F 80.3 °F 53.6 °F 39% 29.79 in 10.0 mi South 26.5 mph 34.5 mph N/A   Clear
11:55 PM 82.4 °F 81.7 °F 55.4 °F 39% 29.79 in 10.0 mi South 23.0 mph 38.0 mph N/A   Clear